Time;durP1;ratioP1;P1;durP2;ratioP2;P2;SDS_P1;SDS_P2;PMS_P1;PMS_P2;Temp;Humidity;BMP_temperature;BMP_pressure;BME280_temperature;BME280_humidity;BME280_pressure;Samples;Min_cycle;Max_cycle;Signal;HPM_P1;HPM_P2
2022/12/15 00:40:03;;;;;;;82.27;34.87;;;-7.00;99.90;;;;;;5214869;28;20472;-48
2022/12/15 00:42:33;;;;;;;94.37;37.87;;;-7.00;99.90;;;;;;5218506;28;20520;-48
2022/12/15 00:45:04;;;;;;;83.70;35.60;;;-7.10;99.90;;;;;;5237436;28;20512;-48
2022/12/15 00:47:35;;;;;;;85.73;39.07;;;-7.10;99.90;;;;;;5220082;28;20287;-47
2022/12/15 01:21:07;;;;;;;101.00;44.93;;;-7.10;99.90;;;;;;5224760;28;20560;-47
2022/12/15 01:23:41;;;;;;;112.10;47.00;;;-6.90;99.90;;;;;;5227084;28;20450;-46
2022/12/15 01:26:11;;;;;;;103.00;44.67;;;-6.70;99.90;;;;;;5219684;28;20933;-46
2022/12/15 01:28:42;;;;;;;113.67;46.40;;;-6.60;99.90;;;;;;5229146;28;20408;-45
2022/12/15 01:31:13;;;;;;;108.17;44.87;;;-6.60;99.90;;;;;;5218609;28;20182;-47
2022/12/15 01:33:43;;;;;;;95.53;40.63;;;-6.60;99.90;;;;;;5228030;28;20276;-48
2022/12/15 01:36:14;;;;;;;93.37;42.70;;;-6.60;99.90;;;;;;5228399;28;20189;-48
2022/12/15 01:38:45;;;;;;;98.60;43.63;;;-6.70;99.90;;;;;;5218086;28;20267;-47
2022/12/15 01:41:15;;;;;;;86.63;39.63;;;-6.80;99.90;;;;;;5229577;28;20205;-46
2022/12/15 01:43:46;;;;;;;85.40;39.80;;;-6.80;99.90;;;;;;5225204;28;20410;-46
2022/12/15 01:46:20;;;;;;;93.73;42.10;;;-6.90;99.90;;;;;;5225839;28;20195;-48
2022/12/15 01:48:58;;;;;;;87.27;38.73;;;-6.90;99.90;;;;;;5220887;28;20216;-47
2022/12/15 01:51:36;;;;;;;95.67;41.20;;;-7.00;99.90;;;;;;5224363;28;20438;-46
2022/12/15 01:54:15;;;;;;;78.47;36.93;;;-7.00;99.90;;;;;;5232296;28;20453;-48
2022/12/15 01:56:51;;;;;;;86.13;36.83;;;-7.10;99.90;;;;;;5225382;28;20880;-46
2022/12/15 01:59:37;;;;;;;84.67;37.63;;;-7.10;99.90;;;;;;5227859;28;20546;-46
2022/12/15 02:02:07;;;;;;;84.30;37.33;;;-7.20;99.90;;;;;;5227586;28;20909;-47
2022/12/15 02:04:38;;;;;;;83.30;37.10;;;-7.20;99.90;;;;;;5218343;28;20453;-47
2022/12/15 02:07:15;;;;;;;82.80;37.70;;;-7.20;99.90;;;;;;5210668;28;20723;-46
2022/12/15 02:09:47;;;;;;;85.30;38.57;;;-7.10;99.90;;;;;;5228423;28;20186;-47
2022/12/15 02:12:39;;;;;;;106.50;40.10;;;-7.10;99.90;;;;;;5226970;28;20433;-45
2022/12/15 02:15:16;;;;;;;83.20;36.47;;;-7.10;99.90;;;;;;5226459;28;20526;-47
2022/12/15 02:18:15;;;;;;;85.70;34.67;;;-7.10;99.90;;;;;;5224032;28;20527;-46
2022/12/15 02:20:51;;;;;;;85.70;35.83;;;-7.20;99.90;;;;;;5213304;28;20466;-47
2022/12/15 02:23:46;;;;;;;77.40;37.50;;;-7.20;99.90;;;;;;5226237;28;20787;-48
2022/12/15 02:26:38;;;;;;;89.70;36.57;;;-7.20;99.90;;;;;;5230516;28;20529;-48
2022/12/15 02:29:41;;;;;;;84.67;35.93;;;-7.10;99.90;;;;;;5223487;28;20414;-50
2022/12/15 02:32:29;;;;;;;81.03;34.73;;;-7.10;99.90;;;;;;5238603;28;20425;-48
2022/12/15 02:35:06;;;;;;;89.67;36.53;;;-7.00;99.90;;;;;;5227694;28;20479;-50
2022/12/15 02:37:39;;;;;;;84.63;35.23;;;-7.10;99.90;;;;;;5223074;28;20421;-49
2022/12/15 02:40:10;;;;;;;76.80;36.37;;;-7.10;99.90;;;;;;5227762;28;20517;-50
2022/12/15 02:43:02;;;;;;;90.83;37.43;;;-7.00;99.90;;;;;;5223343;28;20426;-50
2022/12/15 02:46:02;;;;;;;80.23;36.80;;;-7.00;99.90;;;;;;5225295;28;20448;-49
2022/12/15 02:48:50;;;;;;;74.93;34.50;;;-7.00;99.90;;;;;;5210733;28;20430;-49
2022/12/15 02:51:49;;;;;;;79.13;37.50;;;-6.90;99.90;;;;;;5222356;28;20500;-49
2022/12/15 02:54:35;;;;;;;92.43;35.83;;;-6.80;99.90;;;;;;5206976;28;20454;-49
2022/12/15 02:57:24;;;;;;;78.70;33.60;;;-6.80;99.90;;;;;;5225337;28;20437;-48
2022/12/15 02:59:57;;;;;;;77.23;31.67;;;-6.80;99.90;;;;;;5223226;28;20510;-49
2022/12/15 03:02:31;;;;;;;81.33;34.43;;;-6.70;99.90;;;;;;5212223;28;20419;-49
2022/12/15 03:05:02;;;;;;;81.07;36.00;;;-6.70;99.90;;;;;;5224666;28;20412;-48
2022/12/15 03:07:32;;;;;;;75.00;35.27;;;-6.60;99.90;;;;;;5221793;28;20776;-49
2022/12/15 03:10:06;;;;;;;78.70;35.40;;;-6.50;99.90;;;;;;5218557;28;20900;-48
2022/12/15 03:12:36;;;;;;;69.40;34.10;;;-6.30;99.90;;;;;;5221119;28;20179;-48
2022/12/15 03:15:07;;;;;;;84.90;35.20;;;-6.20;99.90;;;;;;5223321;28;21023;-50
2022/12/15 03:17:38;;;;;;;59.40;31.00;;;-6.10;99.90;;;;;;5225690;28;20209;-49
2022/12/15 03:20:09;;;;;;;66.53;30.00;;;-6.10;99.90;;;;;;5242422;28;20488;-50
2022/12/15 03:22:40;;;;;;;67.00;30.03;;;-6.10;99.90;;;;;;5218615;28;20171;-49
2022/12/15 03:25:10;;;;;;;73.67;29.87;;;-6.10;99.90;;;;;;5224492;28;20437;-50
2022/12/15 03:27:43;;;;;;;77.73;32.80;;;-6.10;99.90;;;;;;5216694;28;20267;-48
2022/12/15 03:30:14;;;;;;;73.37;30.63;;;-6.20;99.90;;;;;;5222065;28;20185;-48
2022/12/15 03:32:44;;;;;;;58.73;29.67;;;-6.30;99.90;;;;;;5223424;28;20945;-49
2022/12/15 03:35:15;;;;;;;60.20;27.70;;;-6.40;99.90;;;;;;5226602;28;20488;-49
2022/12/15 03:37:46;;;;;;;65.67;31.00;;;-6.60;99.90;;;;;;5226942;28;20190;-51
2022/12/15 03:40:16;;;;;;;74.93;30.13;;;-6.60;99.90;;;;;;5226090;28;20217;-51
2022/12/15 03:42:47;;;;;;;70.00;31.20;;;-6.60;99.90;;;;;;5215871;28;20256;-50
2022/12/15 03:45:21;;;;;;;77.63;33.13;;;-6.60;99.90;;;;;;5221617;28;20184;-51
2022/12/15 03:47:53;;;;;;;86.20;34.30;;;-6.60;99.90;;;;;;5207425;28;20216;-47
2022/12/15 03:50:27;;;;;;;76.30;33.37;;;-6.40;99.90;;;;;;5216902;28;20468;-50
2022/12/15 03:53:00;;;;;;;86.37;30.97;;;-6.30;99.90;;;;;;5241654;28;20576;-51
2022/12/15 03:55:31;;;;;;;81.27;34.30;;;-6.30;99.90;;;;;;5222054;28;20521;-50
2022/12/15 03:58:02;;;;;;;78.93;33.90;;;-6.30;99.90;;;;;;5213304;28;20438;-51
2022/12/15 04:00:33;;;;;;;79.23;32.77;;;-6.40;99.90;;;;;;5227243;28;20476;-50
2022/12/15 04:03:04;;;;;;;74.17;30.30;;;-6.30;99.90;;;;;;5222959;28;20208;-49
2022/12/15 04:05:35;;;;;;;80.63;33.10;;;-6.40;99.90;;;;;;5220752;28;20245;-48
2022/12/15 04:08:05;;;;;;;77.70;33.20;;;-6.50;99.90;;;;;;5222800;28;20417;-50
2022/12/15 04:10:36;;;;;;;72.70;32.00;;;-6.60;99.90;;;;;;5225535;28;20589;-47
2022/12/15 04:13:09;;;;;;;70.50;32.70;;;-6.60;99.90;;;;;;5214631;28;20587;-49
2022/12/15 04:15:40;;;;;;;76.93;32.33;;;-6.70;99.90;;;;;;5226360;28;20190;-49
2022/12/15 04:18:10;;;;;;;73.73;31.57;;;-6.80;99.90;;;;;;5216640;28;20425;-50
2022/12/15 04:20:41;;;;;;;78.60;33.70;;;-6.70;99.90;;;;;;5224754;28;20475;-50
2022/12/15 04:23:12;;;;;;;82.70;34.00;;;-6.70;99.90;;;;;;5233759;28;20202;-49
2022/12/15 05:33:33;;;;;;;82.77;32.50;;;-7.10;99.90;;;;;;5217163;28;20481;-50
2022/12/15 05:36:05;;;;;;;75.47;30.60;;;-7.10;99.90;;;;;;5227737;28;20417;-50
2022/12/15 05:38:35;;;;;;;71.40;30.57;;;-7.10;99.90;;;;;;5222794;28;20239;-48
2022/12/15 05:41:06;;;;;;;66.27;28.97;;;-7.10;99.90;;;;;;5216923;28;20469;-49
2022/12/15 05:43:36;;;;;;;60.33;28.07;;;-7.10;99.90;;;;;;5209856;28;20724;-52
2022/12/15 05:46:07;;;;;;;65.07;29.23;;;-7.20;99.90;;;;;;5226580;28;20194;-51
2022/12/15 05:48:38;;;;;;;66.47;30.40;;;-7.30;99.90;;;;;;5229059;28;20171;-51
2022/12/15 05:51:10;;;;;;;69.23;30.43;;;-7.10;99.90;;;;;;5220030;28;20191;-47
2022/12/15 05:53:41;;;;;;;65.73;30.20;;;-7.10;99.90;;;;;;5229397;28;20227;-50
2022/12/15 05:56:13;;;;;;;60.40;28.27;;;-7.30;99.90;;;;;;5227731;28;20449;-51
2022/12/15 05:58:44;;;;;;;74.90;30.83;;;-7.40;99.90;;;;;;5227532;28;20433;-50
2022/12/15 06:01:16;;;;;;;68.93;31.60;;;-7.40;99.90;;;;;;5225987;28;20468;-48
2022/12/15 06:03:47;;;;;;;58.70;27.07;;;-7.40;99.90;;;;;;5214564;28;20214;-49
2022/12/15 06:06:18;;;;;;;71.93;32.00;;;-7.30;99.90;;;;;;5223486;28;20907;-48
2022/12/15 06:08:49;;;;;;;58.27;26.67;;;-7.40;99.90;;;;;;5226982;28;20770;-50
2022/12/15 06:11:21;;;;;;;76.63;30.60;;;-7.40;99.90;;;;;;5226549;28;20532;-49
2022/12/15 06:13:52;;;;;;;69.33;31.30;;;-7.50;99.90;;;;;;5225717;28;20209;-49
2022/12/15 06:16:24;;;;;;;68.63;31.73;;;-7.60;99.90;;;;;;5225781;28;20433;-49
2022/12/15 06:19:00;;;;;;;76.97;31.53;;;-7.60;99.90;;;;;;5225627;28;20179;-50
2022/12/15 06:21:34;;;;;;;62.20;28.70;;;-7.60;99.90;;;;;;5239706;28;20808;-50
2022/12/15 06:24:05;;;;;;;67.07;27.93;;;-7.50;99.90;;;;;;5224961;28;20465;-48
2022/12/15 06:26:38;;;;;;;57.90;27.93;;;-7.60;99.90;;;;;;5220382;28;20437;-48
2022/12/15 06:29:10;;;;;;;60.17;27.60;;;-7.60;99.90;;;;;;5231054;28;20425;-49
2022/12/15 06:31:41;;;;;;;64.73;27.67;;;-7.60;99.90;;;;;;5215916;28;20426;-50
2022/12/15 06:34:14;;;;;;;66.23;29.77;;;-7.80;99.90;;;;;;5227632;28;20469;-51
2022/12/15 06:36:45;;;;;;;79.97;28.33;;;-7.80;99.90;;;;;;5221571;28;20442;-51
2022/12/15 06:39:15;;;;;;;64.43;27.60;;;-7.70;99.90;;;;;;5219255;28;20411;-51
2022/12/15 06:41:46;;;;;;;60.30;27.60;;;-7.70;99.90;;;;;;5241404;28;20193;-50
2022/12/15 06:44:17;;;;;;;54.47;26.43;;;-7.70;99.90;;;;;;5227010;28;20206;-50
2022/12/15 06:46:47;;;;;;;66.57;28.30;;;-7.80;99.90;;;;;;5218316;28;20186;-50
2022/12/15 06:49:18;;;;;;;71.33;28.27;;;-7.70;99.90;;;;;;5215148;28;20222;-50
2022/12/15 06:51:49;;;;;;;64.43;30.53;;;-7.80;99.90;;;;;;5219725;28;20282;-51
2022/12/15 06:54:19;;;;;;;64.37;27.50;;;-7.90;99.90;;;;;;5223690;28;20633;-49
2022/12/15 06:56:50;;;;;;;63.60;28.80;;;-7.90;99.90;;;;;;5223344;28;20184;-51
2022/12/15 06:59:21;;;;;;;61.23;29.93;;;-7.80;99.90;;;;;;5205416;28;20207;-51
2022/12/15 07:01:52;;;;;;;80.17;30.97;;;-7.60;99.90;;;;;;5225406;28;20963;-51
2022/12/15 07:04:22;;;;;;;62.70;28.97;;;-7.70;99.90;;;;;;5216832;28;20207;-49
2022/12/15 07:06:53;;;;;;;72.37;29.90;;;-7.80;99.90;;;;;;5219968;28;20210;-50
2022/12/15 07:09:25;;;;;;;69.07;30.27;;;-7.60;99.90;;;;;;5216774;28;20218;-51
2022/12/15 07:11:55;;;;;;;68.40;28.60;;;-7.80;99.90;;;;;;5221185;28;20659;-51
2022/12/15 07:14:26;;;;;;;69.17;29.50;;;-7.80;99.90;;;;;;5219362;28;20501;-50
2022/12/15 07:16:57;;;;;;;65.20;28.87;;;-7.90;99.90;;;;;;5224048;28;20236;-51
2022/12/15 07:19:28;;;;;;;67.83;29.70;;;-7.90;99.90;;;;;;5223548;28;20205;-51
2022/12/15 07:22:00;;;;;;;75.33;31.67;;;-7.80;99.90;;;;;;5217109;28;20942;-50
2022/12/15 07:24:30;;;;;;;74.63;32.87;;;-7.80;99.90;;;;;;5215838;28;21055;-50
2022/12/15 07:27:01;;;;;;;79.77;31.80;;;-7.80;99.90;;;;;;5216384;28;20445;-50
2022/12/15 07:29:32;;;;;;;74.67;32.43;;;-7.80;99.90;;;;;;5221845;28;20233;-49
2022/12/15 07:32:02;;;;;;;68.90;31.03;;;-7.80;99.90;;;;;;5217435;28;20281;-50
2022/12/15 07:34:33;;;;;;;62.80;29.60;;;-7.50;99.90;;;;;;5217934;28;20301;-48
2022/12/15 07:37:04;;;;;;;66.00;30.10;;;-7.40;99.90;;;;;;5221812;28;20186;-49
2022/12/15 07:39:35;;;;;;;80.10;30.17;;;-7.50;99.90;;;;;;5217730;28;20211;-51
2022/12/15 07:42:05;;;;;;;64.83;31.43;;;-7.50;99.90;;;;;;5237494;28;20175;-50
2022/12/15 07:44:36;;;;;;;80.07;35.37;;;-7.50;99.90;;;;;;5232375;28;20563;-50
2022/12/15 07:47:07;;;;;;;157.77;71.90;;;-7.60;99.90;;;;;;5218098;28;20186;-49
2022/12/15 07:49:37;;;;;;;146.20;69.33;;;-7.50;99.90;;;;;;5219540;28;20182;-49
2022/12/15 07:52:08;;;;;;;77.40;36.53;;;-7.30;99.90;;;;;;5216682;28;20674;-51
2022/12/15 07:54:39;;;;;;;108.60;48.40;;;-7.40;99.90;;;;;;5215121;28;20214;-47
2022/12/15 07:57:10;;;;;;;110.10;53.20;;;-7.50;99.90;;;;;;5221719;28;20184;-51
2022/12/15 07:59:41;;;;;;;78.13;38.33;;;-7.50;99.90;;;;;;5197927;28;20982;-50
2022/12/15 08:02:12;;;;;;;65.17;30.97;;;-7.60;99.90;;;;;;5216932;28;20187;-50
2022/12/15 08:04:43;;;;;;;89.23;42.40;;;-7.60;99.90;;;;;;5219504;28;20493;-50
2022/12/15 08:07:13;;;;;;;107.47;47.43;;;-7.40;99.90;;;;;;5222978;28;20441;-50
2022/12/15 08:09:46;;;;;;;78.20;39.90;;;-7.30;99.90;;;;;;5218164;28;20235;-50
2022/12/15 08:12:17;;;;;;;64.20;33.20;;;-7.30;99.90;;;;;;5219714;28;20222;-52
2022/12/15 08:14:47;;;;;;;54.07;24.37;;;-7.40;99.90;;;;;;5217754;28;20953;-50
2022/12/15 08:17:18;;;;;;;58.20;29.70;;;-7.30;99.90;;;;;;5218987;28;20240;-50
2022/12/15 08:19:49;;;;;;;68.23;32.40;;;-7.30;99.90;;;;;;5214881;28;20272;-50
2022/12/15 08:22:19;;;;;;;58.63;25.37;;;-7.10;99.90;;;;;;5214397;28;20186;-51
2022/12/15 08:24:50;;;;;;;63.07;28.30;;;-6.90;99.90;;;;;;5220205;28;20268;-48
2022/12/15 08:27:22;;;;;;;65.07;26.43;;;-6.90;99.90;;;;;;5223639;28;20269;-49
2022/12/15 08:29:53;;;;;;;72.37;33.77;;;-7.00;99.90;;;;;;5222936;28;20637;-50
2022/12/15 08:32:24;;;;;;;77.53;34.27;;;-6.80;99.90;;;;;;5219729;28;20498;-49
2022/12/15 08:34:55;;;;;;;77.53;37.50;;;-6.90;99.90;;;;;;5223747;28;20221;-47
2022/12/15 08:37:25;;;;;;;61.57;26.70;;;-6.80;99.90;;;;;;5221789;28;20199;-49
2022/12/15 08:39:56;;;;;;;50.60;26.03;;;-6.90;99.90;;;;;;5222854;28;20249;-50
2022/12/15 08:42:31;;;;;;;54.90;25.80;;;-6.90;99.90;;;;;;5224306;28;20262;-50
2022/12/15 08:45:03;;;;;;;53.30;26.50;;;-6.80;99.90;;;;;;5222092;28;20183;-49
2022/12/15 08:47:33;;;;;;;61.13;26.70;;;-6.60;99.90;;;;;;5223970;28;20433;-49
2022/12/15 08:50:07;;;;;;;52.37;25.20;;;-6.50;99.90;;;;;;5225016;28;20441;-49
2022/12/15 08:52:40;;;;;;;60.77;26.93;;;-6.60;99.90;;;;;;5240755;28;20339;-48
2022/12/15 08:55:11;;;;;;;49.03;23.50;;;-6.60;99.90;;;;;;5225797;28;20445;-48
2022/12/15 08:57:41;;;;;;;53.10;24.60;;;-6.80;99.90;;;;;;5225871;28;20446;-48
2022/12/15 09:00:13;;;;;;;49.70;23.90;;;-6.60;99.90;;;;;;5227500;28;20271;-47
2022/12/15 09:02:43;;;;;;;50.93;22.53;;;-6.70;99.90;;;;;;5224556;28;20266;-49
2022/12/15 09:05:14;;;;;;;48.30;24.00;;;-6.60;99.90;;;;;;5217124;28;21115;-48
2022/12/15 09:07:45;;;;;;;51.90;25.50;;;-6.70;99.90;;;;;;5221760;28;20190;-48
2022/12/15 09:10:16;;;;;;;59.53;27.10;;;-6.40;99.90;;;;;;5220228;28;20679;-51
2022/12/15 09:12:47;;;;;;;55.63;25.07;;;-6.60;99.90;;;;;;5221680;28;20469;-50
2022/12/15 09:15:18;;;;;;;60.97;26.23;;;-6.50;99.90;;;;;;5227205;28;20195;-48
2022/12/15 09:17:48;;;;;;;57.50;25.97;;;-6.60;99.90;;;;;;5222060;28;20445;-49
2022/12/15 09:20:19;;;;;;;48.83;23.07;;;-6.60;99.90;;;;;;5219737;28;20457;-49
2022/12/15 09:22:50;;;;;;;57.83;26.93;;;-6.40;99.90;;;;;;5218226;28;20208;-48
2022/12/15 09:25:21;;;;;;;59.77;25.63;;;-6.30;99.90;;;;;;5218369;28;20804;-49
2022/12/15 09:27:52;;;;;;;55.13;26.20;;;-6.40;99.90;;;;;;5220831;28;20441;-51
2022/12/15 09:30:22;;;;;;;59.23;26.30;;;-6.30;99.90;;;;;;5222719;28;20191;-46
2022/12/15 09:32:53;;;;;;;50.53;24.03;;;-6.30;99.90;;;;;;5221280;28;20223;-49
2022/12/15 09:35:26;;;;;;;55.67;25.97;;;-6.30;99.90;;;;;;5221083;28;20217;-50
2022/12/15 09:37:57;;;;;;;70.23;30.40;;;-6.30;99.90;;;;;;5226733;28;20190;-48
2022/12/15 09:40:28;;;;;;;62.03;27.73;;;-6.10;99.90;;;;;;5221106;28;20546;-50
2022/12/15 09:42:59;;;;;;;53.30;25.67;;;-6.00;99.90;;;;;;5223928;28;20219;-47
2022/12/15 09:45:38;;;;;;;75.50;31.97;;;-5.90;99.90;;;;;;5227490;28;20181;-49
2022/12/15 09:48:16;;;;;;;61.87;26.33;;;-5.80;99.90;;;;;;5233245;28;20445;-50
2022/12/15 09:50:49;;;;;;;57.70;27.80;;;-5.60;99.90;;;;;;5218625;28;20433;-48
2022/12/15 09:53:24;;;;;;;59.53;28.70;;;-5.70;99.90;;;;;;5222312;28;20484;-49
2022/12/15 09:56:03;;;;;;;56.30;26.23;;;-5.70;99.90;;;;;;5220143;28;20520;-47
2022/12/15 09:58:51;;;;;;;52.73;28.00;;;-5.60;99.90;;;;;;5219578;28;20443;-48
2022/12/15 10:01:28;;;;;;;52.63;27.20;;;-5.50;99.90;;;;;;5220260;28;20469;-48
2022/12/15 10:04:18;;;;;;;48.97;24.30;;;-5.40;99.90;;;;;;5216726;28;20496;-50
2022/12/15 10:06:56;;;;;;;59.47;26.77;;;-5.40;99.90;;;;;;5218047;28;20777;-48
2022/12/15 10:09:29;;;;;;;50.37;24.50;;;-5.40;99.90;;;;;;5221991;28;20429;-49
2022/12/15 10:12:05;;;;;;;63.57;25.97;;;-5.30;99.90;;;;;;5220574;28;20550;-48
2022/12/15 10:14:45;;;;;;;54.03;25.40;;;-5.00;99.90;;;;;;5220543;28;20551;-47
2022/12/15 10:17:56;;;;;;;69.07;26.90;;;-4.70;99.90;;;;;;5214665;28;20437;-46
2022/12/15 10:20:30;;;;;;;44.60;21.50;;;-4.50;99.90;;;;;;5193020;28;20624;-48
2022/12/15 10:23:11;;;;;;;48.73;21.40;;;-4.40;99.90;;;;;;5224758;28;20496;-47
2022/12/15 10:25:52;;;;;;;37.83;20.80;;;-4.20;99.90;;;;;;5210217;28;20430;-50
2022/12/15 10:28:26;;;;;;;52.53;23.03;;;-3.90;99.90;;;;;;5221702;28;20525;-48
2022/12/15 10:31:11;;;;;;;50.83;24.43;;;-3.70;99.90;;;;;;5224656;28;20423;-48
2022/12/15 10:33:45;;;;;;;61.70;25.30;;;-3.70;99.90;;;;;;5224850;28;20539;-48
2022/12/15 10:36:16;;;;;;;53.43;24.07;;;-3.60;99.90;;;;;;5209574;28;20970;-49
2022/12/15 10:38:47;;;;;;;81.53;28.73;;;-3.70;99.90;;;;;;5222356;28;21161;-47
2022/12/15 10:41:24;;;;;;;60.30;28.57;;;-3.60;99.90;;;;;;5221463;28;21008;-48
2022/12/15 10:43:56;;;;;;;75.13;29.37;;;-3.40;99.90;;;;;;5223230;28;20539;-48
2022/12/15 10:46:29;;;;;;;61.70;24.70;;;-3.30;99.90;;;;;;5223994;28;20854;-47
2022/12/15 10:49:21;;;;;;;41.37;21.80;;;-3.20;99.90;;;;;;5229779;28;20418;-52
2022/12/15 10:51:58;;;;;;;48.80;22.30;;;-3.20;99.90;;;;;;5236424;28;20444;-50
2022/12/15 10:54:34;;;;;;;52.13;23.93;;;-3.30;99.90;;;;;;5225214;28;20873;-49
2022/12/15 10:57:34;;;;;;;47.60;21.23;;;-3.10;99.90;;;;;;5219014;28;20875;-47
2022/12/15 11:00:14;;;;;;;50.40;21.60;;;-3.30;99.90;;;;;;5198694;28;20474;-49
2022/12/15 11:02:45;;;;;;;41.43;22.33;;;-3.30;99.90;;;;;;5221052;28;21005;-50
2022/12/15 11:05:16;;;;;;;49.77;22.57;;;-3.00;99.90;;;;;;5225549;28;20441;-50
2022/12/15 11:08:08;;;;;;;39.67;20.20;;;-3.00;99.90;;;;;;5223342;28;20664;-48
2022/12/15 11:13:41;;;;;;;41.40;22.10;;;-2.80;99.90;;;;;;5222861;28;20487;-48
2022/12/15 11:16:18;;;;;;;54.43;24.70;;;-2.80;99.90;;;;;;5223986;28;20437;-48
2022/12/15 11:18:57;;;;;;;47.80;23.07;;;-2.90;99.90;;;;;;5218376;28;20532;-49
2022/12/15 11:21:43;;;;;;;44.90;20.83;;;-2.90;99.90;;;;;;5217973;28;20555;-48
2022/12/15 11:24:20;;;;;;;46.17;23.53;;;-2.80;99.90;;;;;;5215536;28;20826;-49
2022/12/15 11:27:16;;;;;;;42.20;23.10;;;-2.60;99.90;;;;;;5197097;28;20978;-49
2022/12/15 11:30:02;;;;;;;46.43;23.80;;;-2.50;99.90;;;;;;5215501;28;20437;-51
2022/12/15 11:32:36;;;;;;;38.40;20.50;;;-2.30;99.90;;;;;;5226280;28;20430;-50
2022/12/15 11:35:14;;;;;;;39.70;20.90;;;-2.20;99.90;;;;;;5223509;28;20452;-48
2022/12/15 11:38:23;;;;;;;42.13;20.63;;;-2.20;99.90;;;;;;5224117;28;20947;-50
2022/12/15 11:40:57;;;;;;;41.60;21.13;;;-2.10;99.90;;;;;;5230430;28;20470;-50
2022/12/15 11:43:51;;;;;;;43.03;20.37;;;-2.00;99.90;;;;;;5216592;28;20534;-48
2022/12/15 11:46:26;;;;;;;43.67;19.70;;;-1.90;99.90;;;;;;5216240;28;20453;-48
2022/12/15 11:49:35;;;;;;;42.00;22.50;;;-1.80;99.90;;;;;;5211280;28;20481;-52
2022/12/15 11:52:41;;;;;;;58.97;23.43;;;-1.80;99.90;;;;;;5208891;28;20528;-49
2022/12/15 11:55:12;;;;;;;44.17;21.00;;;-1.60;99.90;;;;;;5200320;28;20534;-49
2022/12/15 11:57:55;;;;;;;38.57;20.17;;;-1.60;99.90;;;;;;5222650;28;20437;-48
2022/12/15 12:00:28;;;;;;;40.50;21.70;;;-1.50;99.90;;;;;;5221999;28;20204;-48
2022/12/15 12:03:14;;;;;;;56.67;21.90;;;-1.60;99.90;;;;;;5231199;28;21042;-50
2022/12/15 12:06:09;;;;;;;39.87;19.23;;;-1.30;99.90;;;;;;5220564;28;20520;-49
2022/12/15 12:09:21;;;;;;;43.40;21.10;;;-1.40;99.90;;;;;;5219082;28;22561;-49
2022/12/15 12:12:07;;;;;;;45.10;21.20;;;-1.30;99.90;;;;;;5215734;28;20430;-50
2022/12/15 12:15:17;;;;;;;50.30;22.60;;;-1.30;99.90;;;;;;5218130;28;21109;-52
2022/12/15 12:18:21;;;;;;;41.23;20.50;;;-1.30;99.90;;;;;;5210502;28;20464;-51
2022/12/15 12:21:11;;;;;;;34.43;19.07;;;-1.30;99.90;;;;;;5208423;28;20518;-48
2022/12/15 12:24:02;;;;;;;75.80;30.03;;;-1.20;99.90;;;;;;5212677;28;20457;-50
2022/12/15 12:26:48;;;;;;;52.97;23.27;;;-1.20;99.90;;;;;;5208077;28;21258;-51
2022/12/15 12:29:36;;;;;;;41.37;21.00;;;-1.30;99.90;;;;;;5234570;28;20425;-48
2022/12/15 12:32:36;;;;;;;50.43;23.00;;;-1.60;99.90;;;;;;5227321;28;20430;-50
2022/12/15 12:35:48;;;;;;;52.20;25.80;;;-1.70;99.90;;;;;;5223443;28;20433;-48
2022/12/15 12:38:55;;;;;;;47.40;21.90;;;-1.70;99.90;;;;;;5218378;28;20452;-50
2022/12/15 12:41:29;;;;;;;39.50;19.07;;;-1.90;99.90;;;;;;5222094;28;20464;-48
2022/12/15 12:44:10;;;;;;;46.57;22.33;;;-2.00;99.90;;;;;;5226105;28;20463;-50
2022/12/15 12:46:48;;;;;;;61.40;28.37;;;-1.90;99.90;;;;;;5223519;28;20474;-47
2022/12/15 12:49:32;;;;;;;51.40;22.17;;;-1.80;99.90;;;;;;5222446;28;20409;-49
2022/12/15 12:52:05;;;;;;;50.50;23.10;;;-1.90;99.90;;;;;;5219067;28;21055;-48
2022/12/15 12:54:36;;;;;;;47.70;25.10;;;-1.50;99.90;;;;;;5227346;28;20457;-49
2022/12/15 12:57:13;;;;;;;46.13;24.27;;;-1.60;99.90;;;;;;5230434;28;20433;-50
2022/12/15 13:00:00;;;;;;;45.33;20.73;;;-1.80;99.90;;;;;;5228903;28;20202;-48
2022/12/15 13:02:33;;;;;;;43.83;21.97;;;-1.60;99.90;;;;;;5224089;28;20429;-49
2022/12/15 13:05:23;;;;;;;50.20;22.60;;;-1.90;99.90;;;;;;5222688;28;20441;-48
2022/12/15 13:08:03;;;;;;;47.83;22.67;;;-1.80;99.90;;;;;;5222994;28;20450;-49
2022/12/15 13:10:45;;;;;;;54.93;22.60;;;-1.80;99.90;;;;;;5224869;28;20441;-49
2022/12/15 13:13:28;;;;;;;34.73;20.03;;;-1.80;99.90;;;;;;5226288;28;20975;-49
2022/12/15 13:16:17;;;;;;;56.30;23.00;;;-1.90;99.90;;;;;;5243092;28;20480;-49
2022/12/15 13:19:03;;;;;;;37.50;21.13;;;-1.90;99.90;;;;;;5228308;28;20435;-48
2022/12/15 13:21:40;;;;;;;56.73;21.50;;;-1.90;99.90;;;;;;5220528;28;20464;-49
2022/12/15 13:24:40;;;;;;;55.67;22.50;;;-1.80;99.90;;;;;;5219193;28;20464;-46
2022/12/15 13:27:14;;;;;;;51.30;23.90;;;-2.00;99.90;;;;;;5219667;28;20432;-47
2022/12/15 13:30:06;;;;;;;44.07;21.40;;;-2.10;99.90;;;;;;5227093;28;20437;-48
2022/12/15 13:32:44;;;;;;;55.33;23.70;;;-2.00;99.90;;;;;;5226671;28;20433;-48
2022/12/15 13:35:18;;;;;;;47.90;24.33;;;-1.90;99.90;;;;;;5227074;28;20456;-48
2022/12/15 13:37:49;;;;;;;50.53;24.80;;;-2.00;99.90;;;;;;5223803;28;20784;-48
2022/12/15 13:40:35;;;;;;;44.33;21.40;;;-2.20;99.90;;;;;;5226847;28;20490;-48
2022/12/15 13:43:30;;;;;;;41.70;21.87;;;-2.10;99.90;;;;;;5241134;28;20465;-49
2022/12/15 13:46:13;;;;;;;52.50;26.37;;;-2.30;99.90;;;;;;5227467;28;20418;-49
2022/12/15 13:49:02;;;;;;;68.10;28.10;;;-2.40;99.90;;;;;;5226464;28;20893;-48
2022/12/15 13:51:43;;;;;;;60.43;24.67;;;-2.50;99.90;;;;;;5226812;28;20456;-47
2022/12/15 13:54:16;;;;;;;56.07;25.57;;;-2.50;99.90;;;;;;5226097;28;20547;-50
2022/12/15 13:57:04;;;;;;;48.10;22.87;;;-2.60;99.90;;;;;;5228141;28;21014;-49
2022/12/15 13:59:51;;;;;;;54.50;25.77;;;-2.60;99.90;;;;;;5228017;28;20451;-47
2022/12/15 14:02:24;;;;;;;50.07;25.10;;;-2.80;99.90;;;;;;5226702;28;20502;-47
2022/12/15 14:05:14;;;;;;;48.50;24.27;;;-2.70;99.90;;;;;;5225986;28;20737;-47
2022/12/15 14:07:46;;;;;;;50.47;24.47;;;-2.70;99.90;;;;;;5218281;28;20433;-48
2022/12/15 14:10:24;;;;;;;49.20;26.10;;;-2.70;99.90;;;;;;5225315;28;20425;-47
2022/12/15 14:12:59;;;;;;;54.80;26.53;;;-2.90;99.90;;;;;;5221601;28;20461;-48
2022/12/15 14:15:32;;;;;;;54.27;26.07;;;-2.90;99.90;;;;;;5226806;28;20454;-49
2022/12/15 14:18:02;;;;;;;48.13;23.30;;;-2.90;99.90;;;;;;5227729;28;20448;-48
2022/12/15 14:20:39;;;;;;;54.00;25.60;;;-3.00;99.90;;;;;;5226636;28;20481;-49
2022/12/15 14:23:38;;;;;;;51.80;24.20;;;-3.00;99.90;;;;;;5225546;28;20213;-48
2022/12/15 14:26:11;;;;;;;58.20;26.27;;;-3.10;99.90;;;;;;5225900;28;20441;-49
2022/12/15 14:28:44;;;;;;;65.10;28.57;;;-3.10;99.90;;;;;;5226044;28;20426;-48
2022/12/15 14:31:24;;;;;;;55.63;26.90;;;-3.20;99.90;;;;;;5224211;28;20445;-48
2022/12/15 14:34:17;;;;;;;58.57;27.60;;;-3.20;99.90;;;;;;5224064;28;20504;-49
2022/12/15 14:36:49;;;;;;;57.43;28.50;;;-3.20;99.90;;;;;;5223278;28;20486;-49
2022/12/15 14:39:47;;;;;;;62.03;25.53;;;-3.20;99.90;;;;;;5221645;28;20450;-51
2022/12/15 14:42:22;;;;;;;50.43;25.27;;;-3.20;99.90;;;;;;5224690;28;20434;-51
2022/12/15 14:44:54;;;;;;;55.63;25.80;;;-3.20;99.90;;;;;;5218146;28;20456;-51
2022/12/15 14:47:34;;;;;;;49.77;24.80;;;-3.30;99.90;;;;;;5221847;28;21054;-52
2022/12/15 14:50:10;;;;;;;55.90;27.77;;;-3.10;99.90;;;;;;5212716;28;20452;-51
2022/12/15 14:52:42;;;;;;;55.93;27.73;;;-3.30;99.90;;;;;;5220883;28;20434;-51
2022/12/15 14:55:30;;;;;;;53.10;24.30;;;-3.30;99.90;;;;;;5218265;28;20974;-49
2022/12/15 14:58:20;;;;;;;47.67;23.67;;;-3.30;99.90;;;;;;5224696;28;20930;-53
2022/12/15 15:00:53;;;;;;;56.93;27.20;;;-3.30;99.90;;;;;;5213101;28;20514;-51
2022/12/15 15:03:39;;;;;;;49.00;24.10;;;-3.30;99.90;;;;;;5225069;28;20481;-50
2022/12/15 15:06:10;;;;;;;63.40;27.70;;;-3.30;99.90;;;;;;5218511;28;20507;-50
2022/12/15 15:08:52;;;;;;;59.67;26.03;;;-3.30;99.90;;;;;;5220068;28;20847;-54
2022/12/15 15:11:29;;;;;;;58.00;28.13;;;-3.40;99.90;;;;;;5213805;28;20179;-52
2022/12/15 15:14:24;;;;;;;54.10;27.33;;;-3.40;99.90;;;;;;5212728;28;20471;-50
2022/12/15 15:17:08;;;;;;;61.17;25.00;;;-3.30;99.90;;;;;;5201424;28;20495;-52
2022/12/15 15:19:47;;;;;;;58.70;27.00;;;-3.40;99.90;;;;;;5217417;28;20448;-51
2022/12/15 15:22:29;;;;;;;50.70;24.13;;;-3.30;99.90;;;;;;5218840;28;20571;-51
2022/12/15 15:25:18;;;;;;;61.03;28.10;;;-3.30;99.90;;;;;;5220747;28;20449;-51
2022/12/15 15:27:49;;;;;;;64.83;27.20;;;-3.50;99.90;;;;;;5214410;28;20918;-49
2022/12/15 15:30:21;;;;;;;56.87;29.00;;;-3.40;99.90;;;;;;5222588;28;20472;-51
2022/12/15 15:32:57;;;;;;;69.00;27.50;;;-3.40;99.90;;;;;;5220265;28;20211;-51
2022/12/15 15:35:30;;;;;;;62.83;27.60;;;-3.50;99.90;;;;;;5217409;28;20520;-51